createdAt,value
2018-05-08T00:00:10.688Z,81.77
2018-05-08T00:01:10.608Z,82.91
2018-05-08T00:03:03.470Z,82.91
2018-05-08T00:04:03.346Z,83.39
2018-05-08T00:05:56.212Z,82.34
2018-05-08T00:06:56.092Z,83.29
2018-05-08T00:08:48.986Z,84.25
2018-05-08T00:09:48.841Z,83.96
2018-05-08T00:11:41.799Z,83.77
2018-05-08T00:12:41.699Z,83.58
2018-05-08T00:14:34.578Z,82.82
2018-05-08T00:15:34.451Z,82.63
2018-05-08T00:17:27.327Z,82.53
2018-05-08T00:18:27.193Z,82.53
2018-05-08T00:20:20.070Z,83.67
2018-05-08T00:21:19.951Z,81.96
2018-05-08T00:23:12.818Z,82.34
2018-05-08T00:24:12.704Z,82.15
2018-05-08T00:26:05.648Z,82.91
2018-05-08T00:27:05.560Z,82.24
2018-05-08T00:28:58.410Z,81.29
2018-05-08T00:29:58.298Z,81.38
2018-05-08T00:31:51.142Z,82.15
2018-05-08T00:32:51.042Z,81.86
2018-05-08T00:34:43.912Z,83.67
2018-05-08T00:35:43.799Z,83.48
2018-05-08T00:37:36.668Z,83.39
2018-05-08T00:38:36.545Z,84.16
2018-05-08T00:40:29.402Z,84.44
2018-05-08T00:41:29.293Z,86.54
2018-05-08T00:43:22.146Z,85.58
2018-05-08T00:44:22.112Z,85.01
2018-05-08T00:46:14.897Z,84.25
2018-05-08T00:47:14.795Z,84.63
2018-05-08T00:49:07.674Z,84.72
2018-05-08T00:50:07.538Z,85.01
2018-05-08T00:52:00.393Z,83.58
2018-05-08T00:53:00.302Z,83.77
2018-05-08T00:54:53.163Z,83.58
2018-05-08T00:55:53.047Z,83.29
2018-05-08T00:57:45.880Z,84.06
2018-05-08T00:58:45.785Z,83.58
2018-05-08T01:00:38.650Z,85.01
2018-05-08T01:01:38.542Z,83.48
2018-05-08T01:03:31.382Z,82.06
2018-05-08T01:04:31.306Z,82.53
2018-05-08T01:06:24.281Z,82.72
2018-05-08T01:07:24.161Z,82.11
2018-05-08T01:09:16.987Z,82.01
2018-05-08T01:10:16.890Z,80.77
2018-05-08T01:12:09.753Z,80.11
2018-05-08T01:13:09.658Z,80.77
2018-05-08T01:15:03.006Z,80.39
2018-05-08T01:16:02.958Z,79.91
2018-05-08T01:17:55.787Z,79.35
2018-05-08T01:18:55.666Z,79.72
2018-05-08T01:20:48.504Z,78.96
2018-05-08T01:21:48.406Z,78.30
2018-05-08T01:23:41.262Z,78.01
2018-05-08T01:24:41.150Z,78.20
2018-05-08T01:26:34.094Z,80.20
2018-05-08T01:27:34.011Z,81.15
2018-05-08T01:29:26.856Z,81.06
2018-05-08T01:30:26.787Z,82.72
2018-05-08T01:32:19.699Z,82.30
2018-05-08T01:33:19.623Z,82.40
2018-05-08T01:35:12.486Z,83.39
2018-05-08T01:36:12.353Z,82.15
2018-05-08T01:38:05.204Z,83.29
2018-05-08T01:39:05.120Z,82.72
2018-05-08T01:40:57.951Z,83.87
2018-05-08T01:41:57.865Z,82.72
2018-05-08T01:43:50.723Z,83.29
2018-05-08T01:44:50.600Z,83.39
2018-05-08T01:46:43.351Z,83.77
2018-05-08T01:47:43.248Z,83.87
2018-05-08T01:49:36.105Z,83.48
2018-05-08T01:50:36.000Z,83.11
2018-05-08T01:52:28.971Z,82.97
2018-05-08T01:53:28.850Z,82.87
2018-05-08T01:55:21.704Z,83.54
2018-05-08T01:56:21.604Z,83.44
2018-05-08T01:58:14.858Z,81.63
2018-05-08T01:59:14.787Z,82.49
2018-05-08T02:01:07.629Z,82.82
2018-05-08T02:02:07.515Z,82.40
2018-05-08T02:04:00.364Z,81.63
2018-05-08T02:05:00.331Z,82.01
2018-05-08T02:06:53.121Z,84.34
2018-05-08T02:07:53.027Z,84.44
2018-05-08T02:09:46.357Z,83.39
2018-05-08T02:10:45.758Z,84.34
2018-05-08T02:12:38.650Z,82.72
2018-05-08T02:13:38.504Z,82.82
2018-05-08T02:15:31.356Z,82.20
2018-05-08T02:16:31.260Z,82.68
2018-05-08T02:18:24.126Z,82.59
2018-05-08T02:19:24.005Z,83.25
2018-05-08T02:21:16.862Z,82.91
2018-05-08T02:22:16.757Z,84.30
2018-05-08T02:24:09.625Z,83.96
2018-05-08T02:25:09.512Z,85.39
2018-05-08T02:27:02.398Z,90.21
2018-05-08T02:28:02.256Z,90.40
2018-05-08T02:29:55.123Z,90.88
2018-05-08T02:30:55.002Z,90.88
2018-05-08T02:32:47.982Z,90.59
2018-05-08T02:33:47.876Z,90.69
2018-05-08T02:35:40.705Z,88.54
2018-05-08T02:36:40.630Z,87.68
2018-05-08T02:38:33.549Z,86.25
2018-05-08T02:39:33.364Z,85.21
2018-05-08T02:41:26.221Z,84.16
2018-05-08T02:42:26.120Z,84.63
2018-05-08T02:44:18.977Z,83.01
2018-05-08T02:45:18.862Z,84.16
2018-05-08T02:47:11.724Z,84.25
2018-05-08T02:48:11.655Z,83.44
2018-05-08T02:50:04.473Z,82.01
2018-05-08T02:51:04.389Z,82.20
2018-05-08T02:52:57.196Z,81.06
2018-05-08T02:53:57.103Z,80.58
2018-05-08T02:55:49.966Z,80.01
2018-05-08T02:56:49.848Z,81.54
2018-05-08T02:58:42.699Z,80.68
2018-05-08T02:59:42.612Z,81.35
2018-05-08T03:01:35.456Z,79.15
2018-05-08T03:02:35.348Z,78.96
2018-05-08T03:04:28.241Z,78.30
2018-05-08T03:05:28.102Z,78.30
2018-05-08T03:07:21.457Z,76.29
2018-05-08T03:08:20.873Z,77.53
2018-05-08T03:10:14.243Z,76.39
2018-05-08T03:11:14.126Z,75.62
2018-05-08T03:13:06.999Z,75.62
2018-05-08T03:14:06.859Z,74.86
2018-05-08T03:16:00.233Z,75.01
2018-05-08T03:17:00.120Z,72.82
2018-05-08T03:18:52.981Z,71.48
2018-05-08T03:19:52.875Z,71.11
2018-05-08T03:21:45.758Z,70.15
2018-05-08T03:22:45.675Z,70.25
2018-05-08T03:24:38.476Z,70.06
2018-05-08T03:25:38.385Z,69.39
2018-05-08T03:27:31.254Z,65.86
2018-05-08T03:28:31.124Z,65.10
2018-05-08T03:30:23.971Z,66.15
2018-05-08T03:31:23.913Z,66.15
2018-05-08T03:33:16.726Z,66.63
2018-05-08T03:34:16.626Z,66.34
2018-05-08T03:36:09.470Z,65.67
2018-05-08T03:37:09.365Z,65.77
2018-05-08T03:39:02.254Z,62.52
2018-05-08T03:40:02.117Z,64.05
2018-05-08T03:41:55.006Z,62.24
2018-05-08T03:42:54.873Z,62.68
2018-05-08T03:44:47.724Z,63.67
2018-05-08T03:45:47.859Z,64.53
2018-05-08T03:47:40.563Z,61.54
2018-05-08T03:48:40.367Z,61.10
2018-05-08T03:50:33.219Z,63.17
2018-05-08T03:51:33.113Z,64.34
2018-05-08T03:53:25.979Z,64.50
2018-05-08T03:54:25.865Z,63.20
2018-05-08T03:56:18.763Z,64.21
2018-05-08T03:57:18.719Z,65.36
2018-05-08T03:59:11.487Z,63.29
2018-05-08T04:00:11.366Z,64.40
2018-05-08T04:02:05.829Z,64.69
2018-05-08T04:03:05.205Z,65.48
2018-05-08T04:04:58.019Z,64.87
2018-05-08T04:05:57.890Z,63.73
2018-05-08T04:07:50.638Z,62.40
2018-05-08T04:08:50.568Z,62.40
2018-05-08T04:10:43.483Z,60.59
2018-05-08T04:11:43.300Z,60.88
2018-05-08T04:13:36.174Z,59.35
2018-05-08T04:14:36.064Z,60.49
2018-05-08T04:16:28.816Z,59.06
2018-05-08T04:17:28.692Z,58.50
2018-05-08T04:19:21.447Z,56.94
2018-05-08T04:20:21.368Z,56.21
2018-05-08T04:22:14.181Z,55.26
2018-05-08T04:23:14.082Z,55.07
2018-05-08T04:25:06.859Z,55.35
2018-05-08T04:26:06.736Z,56.11
2018-05-08T04:27:59.986Z,53.54
2018-05-08T04:28:59.929Z,53.54
2018-05-08T04:30:52.679Z,54.68
2018-05-08T04:31:52.532Z,53.64
2018-05-08T04:33:45.893Z,53.54
2018-05-08T04:34:45.814Z,53.06
2018-05-08T04:36:38.630Z,50.97
2018-05-08T04:37:38.438Z,51.82
2018-05-08T04:39:32.335Z,52.75
2018-05-08T04:40:32.240Z,51.04
2018-05-08T04:42:24.982Z,48.56
2018-05-08T04:43:24.886Z,45.15
2018-05-08T04:45:18.903Z,47.71
2018-05-08T04:46:18.634Z,48.78
2018-05-08T04:48:11.493Z,47.44
2018-05-08T04:49:11.515Z,47.73
2018-05-08T04:51:04.288Z,48.58
2018-05-08T04:52:04.252Z,49.16
2018-05-08T04:53:57.252Z,49.26
2018-05-08T04:54:56.975Z,51.06
2018-05-08T04:56:49.649Z,49.26
2018-05-08T04:57:49.537Z,49.35
2018-05-08T04:59:42.285Z,47.54
2018-05-08T05:00:42.245Z,47.34
2018-05-08T05:02:35.120Z,48.97
2018-05-08T05:03:34.929Z,48.97
2018-05-08T05:05:28.471Z,49.35
2018-05-08T05:06:27.675Z,49.16
2018-05-08T05:08:20.453Z,47.63
2018-05-08T05:09:20.335Z,48.30
2018-05-08T05:11:13.197Z,46.39
2018-05-08T05:12:13.075Z,46.78
2018-05-08T05:14:05.848Z,48.58
2018-05-08T05:15:05.747Z,49.26
2018-05-08T05:16:58.597Z,49.35
2018-05-08T05:17:58.570Z,50.49
2018-05-08T05:19:51.224Z,50.40
2018-05-08T05:20:51.128Z,49.44
2018-05-08T05:22:43.895Z,50.59
2018-05-08T05:23:43.794Z,50.97
2018-05-08T05:25:36.616Z,50.01
2018-05-08T05:26:36.521Z,50.11
2018-05-08T05:28:29.285Z,52.30
2018-05-08T05:29:29.175Z,51.92
2018-05-08T05:31:22.013Z,51.82
2018-05-08T05:32:21.939Z,53.47
2018-05-08T05:34:14.666Z,56.04
2018-05-08T05:35:14.569Z,56.14
2018-05-08T05:37:07.378Z,55.95
2018-05-08T05:38:07.280Z,55.57
2018-05-08T05:40:00.122Z,54.43
2018-05-08T05:40:59.956Z,55.21
2018-05-08T05:42:52.821Z,58.55
2018-05-08T05:43:52.720Z,58.55
2018-05-08T05:45:45.743Z,59.60
2018-05-08T05:46:45.460Z,60.08
2018-05-08T05:48:38.332Z,60.87
2018-05-08T05:49:38.208Z,59.92
2018-05-08T05:51:30.965Z,59.44
2018-05-08T05:52:31.002Z,61.73
2018-05-08T05:54:23.725Z,67.46
2018-05-08T05:55:23.632Z,69.21
2018-05-08T05:57:16.461Z,72.93
2018-05-08T05:58:16.353Z,81.14
2018-05-08T06:00:09.211Z,75.98
2018-05-08T06:01:09.100Z,71.59
2018-05-08T06:03:01.954Z,78.60
2018-05-08T06:04:01.859Z,76.31
2018-05-08T06:05:54.702Z,82.94
2018-05-08T06:06:54.625Z,76.73
2018-05-08T06:08:48.385Z,79.60
2018-05-08T06:09:48.382Z,83.23
2018-05-08T06:11:41.241Z,83.90
2018-05-08T06:12:41.257Z,86.29
2018-05-08T06:14:33.875Z,84.80
2018-05-08T06:15:33.768Z,85.81
2018-05-08T06:17:26.625Z,87.29
2018-05-08T06:18:26.521Z,90.16
2018-05-08T06:20:19.326Z,85.66
2018-05-08T06:21:19.230Z,87.57
2018-05-08T06:23:12.055Z,91.30
2018-05-08T06:24:11.946Z,90.06
2018-05-08T06:26:05.291Z,90.25
2018-05-08T06:27:05.188Z,93.16
2018-05-08T06:28:58.123Z,92.59
2018-05-08T06:29:58.019Z,91.16
2018-05-08T06:31:51.358Z,89.81
2018-05-08T06:32:50.680Z,91.06
2018-05-08T06:34:43.579Z,93.26
2018-05-08T06:35:43.466Z,92.73
2018-05-08T06:37:36.332Z,95.61
2018-05-08T06:38:36.236Z,93.69
2018-05-08T06:40:29.100Z,95.12
2018-05-08T06:41:28.959Z,96.27
2018-05-08T06:43:21.998Z,97.47
2018-05-08T06:44:21.815Z,96.51
2018-05-08T06:46:15.728Z,95.56
2018-05-08T06:47:15.582Z,96.22
2018-05-08T06:49:08.626Z,98.14
2018-05-08T06:50:08.311Z,99.99
2018-05-08T06:52:01.992Z,99.99
2018-05-08T06:53:02.018Z,99.82
2018-05-08T06:54:54.770Z,99.99
2018-05-08T06:55:54.649Z,99.99
2018-05-08T06:57:50.721Z,99.99
2018-05-08T06:58:50.796Z,99.99
2018-05-08T07:00:46.545Z,99.99
2018-05-08T07:01:47.173Z,99.99
2018-05-08T07:03:40.086Z,99.99
2018-05-08T07:04:40.117Z,99.99
2018-05-08T07:06:32.859Z,99.99
2018-05-08T07:07:32.694Z,99.99
2018-05-08T07:09:25.549Z,99.99
2018-05-08T07:10:25.463Z,99.99
2018-05-08T07:12:18.392Z,99.99
2018-05-08T07:13:18.215Z,99.99
2018-05-08T07:15:12.087Z,99.99
2018-05-08T07:16:12.259Z,99.99
2018-05-08T07:18:04.907Z,99.99
2018-05-08T07:19:04.726Z,99.99
2018-05-08T07:20:57.788Z,99.99
2018-05-08T07:21:57.571Z,99.99
2018-05-08T07:23:50.463Z,99.99
2018-05-08T07:24:50.375Z,99.99
2018-05-08T07:26:43.622Z,99.99
2018-05-08T07:27:43.524Z,99.99
2018-05-08T07:29:36.468Z,99.99
2018-05-08T07:30:36.276Z,99.99
2018-05-08T07:32:29.127Z,99.99
2018-05-08T07:33:29.007Z,99.99
2018-05-08T07:35:21.892Z,99.99
2018-05-08T07:36:21.772Z,99.99
2018-05-08T07:38:16.227Z,99.99
2018-05-08T07:39:15.925Z,99.99
2018-05-08T07:41:09.850Z,99.99
2018-05-08T07:42:09.687Z,99.99
2018-05-08T07:44:03.088Z,99.99
2018-05-08T07:45:02.472Z,99.99
2018-05-08T07:46:56.889Z,99.99
2018-05-08T07:47:56.612Z,99.99
2018-05-08T07:49:49.599Z,99.99
2018-05-08T07:50:49.407Z,99.99
2018-05-08T07:52:42.767Z,99.99
2018-05-08T07:53:42.129Z,99.99
2018-05-08T07:55:38.264Z,99.99
2018-05-08T07:56:38.232Z,99.99
2018-05-08T07:58:32.627Z,99.99
2018-05-08T07:59:32.558Z,99.99
2018-05-08T08:01:25.940Z,99.99
2018-05-08T08:02:25.301Z,99.99
2018-05-08T08:04:18.112Z,99.99
2018-05-08T08:05:18.059Z,99.99
2018-05-08T08:07:10.804Z,99.99
2018-05-08T08:08:10.675Z,99.99
2018-05-08T08:10:04.112Z,99.99
2018-05-08T08:11:03.428Z,99.99
2018-05-08T08:12:56.284Z,99.99
2018-05-08T08:13:56.186Z,99.99
2018-05-08T08:15:49.038Z,99.99
2018-05-08T08:16:48.917Z,99.99
2018-05-08T08:18:41.779Z,99.99
2018-05-08T08:19:41.672Z,99.99
2018-05-08T08:21:34.531Z,99.99
2018-05-08T08:22:34.438Z,99.99
2018-05-08T08:24:27.278Z,99.99
2018-05-08T08:25:27.178Z,99.99
2018-05-08T08:27:20.027Z,98.54
2018-05-08T08:28:19.915Z,97.96
2018-05-08T08:30:12.764Z,97.67
2018-05-08T08:31:12.681Z,94.73
2018-05-08T08:33:05.526Z,93.19
2018-05-08T08:34:05.444Z,91.36
2018-05-08T08:35:58.259Z,88.09
2018-05-08T08:36:58.173Z,86.26
2018-05-08T08:38:51.050Z,86.16
2018-05-08T08:39:50.918Z,88.95
2018-05-08T08:41:43.760Z,85.97
2018-05-08T08:42:43.664Z,86.65
2018-05-08T08:44:36.522Z,85.58
2018-05-08T08:45:36.458Z,83.47
2018-05-08T08:47:29.372Z,81.01
2018-05-08T08:48:29.176Z,81.77
2018-05-08T08:50:22.029Z,81.77
2018-05-08T08:51:21.924Z,76.90
2018-05-08T08:53:14.783Z,78.73
2018-05-08T08:54:14.661Z,78.02
2018-05-08T08:56:07.980Z,80.04
2018-05-08T08:57:07.824Z,77.67
2018-05-08T08:59:00.710Z,82.68
2018-05-08T09:00:00.591Z,79.11
2018-05-08T09:01:53.459Z,76.51
2018-05-08T09:02:53.317Z,78.54
2018-05-08T09:04:46.204Z,75.78
2018-05-08T09:05:46.100Z,75.20
2018-05-08T09:07:38.927Z,75.49
2018-05-08T09:08:38.853Z,73.18
2018-05-08T09:10:31.713Z,74.78
2018-05-08T09:11:31.572Z,77.09
2018-05-08T09:13:24.559Z,75.65
2018-05-08T09:14:24.323Z,75.30
2018-05-08T09:16:17.177Z,78.38
2018-05-08T09:17:17.071Z,72.79
2018-05-08T09:19:09.917Z,74.91
2018-05-08T09:20:09.864Z,76.45
2018-05-08T09:22:02.676Z,74.27
2018-05-08T09:23:02.602Z,71.96
2018-05-08T09:24:55.431Z,71.22
2018-05-08T09:25:55.319Z,66.20
2018-05-08T09:27:48.222Z,67.71
2018-05-08T09:28:48.080Z,67.85
2018-05-08T09:30:40.908Z,69.49
2018-05-08T09:31:40.849Z,68.71
2018-05-08T09:33:33.686Z,68.23
2018-05-08T09:34:33.581Z,67.65
2018-05-08T09:36:26.471Z,66.59
2018-05-08T09:37:26.343Z,67.07
2018-05-08T09:39:20.309Z,63.82
2018-05-08T09:40:19.095Z,64.98
2018-05-08T09:42:11.933Z,62.37
2018-05-08T09:43:11.833Z,60.54
2018-05-08T09:45:04.657Z,64.11
2018-05-08T09:46:04.563Z,61.99
2018-05-08T09:47:57.427Z,61.12
2018-05-08T09:48:57.347Z,61.41
2018-05-08T09:50:50.283Z,61.99
2018-05-08T09:51:50.075Z,61.80
2018-05-08T09:53:42.942Z,61.70
2018-05-08T09:54:42.847Z,60.35
2018-05-08T09:56:35.659Z,60.18
2018-05-08T09:57:35.589Z,60.16
2018-05-08T09:59:28.431Z,58.22
2018-05-08T10:00:28.351Z,59.31
2018-05-08T10:02:21.209Z,61.63
2018-05-08T10:03:21.115Z,61.44
2018-05-08T10:05:14.440Z,58.06
2018-05-08T10:06:14.031Z,58.73
2018-05-08T10:08:06.665Z,56.32
2018-05-08T10:09:06.579Z,57.09
2018-05-08T10:10:59.645Z,55.67
2018-05-08T10:11:59.332Z,54.22
2018-05-08T10:13:52.799Z,55.11
2018-05-08T10:14:52.584Z,54.83
2018-05-08T10:16:45.466Z,53.09
2018-05-08T10:17:45.415Z,53.79
2018-05-08T10:19:38.183Z,52.02
2018-05-08T10:20:38.202Z,52.02
2018-05-08T10:22:31.439Z,53.09
2018-05-08T10:23:31.352Z,51.42
2018-05-08T10:25:24.395Z,52.67
2018-05-08T10:26:24.263Z,51.97
2018-05-08T10:28:16.964Z,53.23
2018-05-08T10:29:16.856Z,53.16
2018-05-08T10:31:09.729Z,50.93
2018-05-08T10:32:09.594Z,51.35
2018-05-08T10:34:02.480Z,49.82
2018-05-08T10:35:02.351Z,50.21
2018-05-08T10:36:55.722Z,48.86
2018-05-08T10:37:55.131Z,48.27
2018-05-08T10:39:47.976Z,48.32
2018-05-08T10:40:47.883Z,48.61
2018-05-08T10:42:40.820Z,49.10
2018-05-08T10:43:40.674Z,49.32
2018-05-08T10:45:33.679Z,47.99
2018-05-08T10:46:33.494Z,47.21
2018-05-08T10:48:26.376Z,46.75
2018-05-08T10:49:26.203Z,47.52
2018-05-08T10:51:19.036Z,46.84
2018-05-08T10:52:18.961Z,48.27
2018-05-08T10:54:11.800Z,48.57
2018-05-08T10:55:11.701Z,49.44
2018-05-08T10:57:04.700Z,49.24
2018-05-08T10:58:04.556Z,49.34
2018-05-08T10:59:57.402Z,47.28
2018-05-08T11:00:57.299Z,47.96
2018-05-08T11:02:50.151Z,48.27
2018-05-08T11:03:50.046Z,48.16
2018-05-08T11:05:42.877Z,48.54
2018-05-08T11:06:42.799Z,48.25
2018-05-08T11:08:35.648Z,48.08
2018-05-08T11:09:35.556Z,44.40
2018-05-08T11:11:28.382Z,47.04
2018-05-08T11:12:28.304Z,47.81
2018-05-08T11:14:21.154Z,45.03
2018-05-08T11:15:21.043Z,44.54
2018-05-08T11:17:13.913Z,43.75
2018-05-08T11:18:13.799Z,43.55
2018-05-08T11:20:06.646Z,43.77
2018-05-08T11:21:06.542Z,43.96
2018-05-08T11:22:59.380Z,43.77
2018-05-08T11:23:59.304Z,42.78
2018-05-08T11:25:52.245Z,43.17
2018-05-08T11:26:52.262Z,43.55
2018-05-08T11:28:44.979Z,42.71
2018-05-08T11:29:44.899Z,43.29
2018-05-08T11:31:37.777Z,42.44
2018-05-08T11:32:37.692Z,41.95
2018-05-08T11:34:30.477Z,42.54
2018-05-08T11:35:30.427Z,42.44
2018-05-08T11:37:23.264Z,41.00
2018-05-08T11:38:23.140Z,39.84
2018-05-08T11:40:16.507Z,39.24
2018-05-08T11:41:16.417Z,39.55
2018-05-08T11:43:09.269Z,40.13
2018-05-08T11:44:09.152Z,38.95
2018-05-08T11:46:01.994Z,39.92
2018-05-08T11:47:01.904Z,38.95
2018-05-08T11:48:54.766Z,39.74
2018-05-08T11:49:54.751Z,39.26
2018-05-08T11:51:47.501Z,41.30
2018-05-08T11:52:47.413Z,40.33
2018-05-08T11:54:40.346Z,39.65
2018-05-08T11:55:40.265Z,38.58
2018-05-08T11:57:33.087Z,39.55
2018-05-08T11:58:33.013Z,39.45
2018-05-08T12:00:25.846Z,40.50
2018-05-08T12:01:25.746Z,40.31
2018-05-08T12:03:19.213Z,40.61
2018-05-08T12:04:18.526Z,40.33
2018-05-08T12:06:11.373Z,41.78
2018-05-08T12:07:11.273Z,40.25
2018-05-08T12:09:04.084Z,39.84
2018-05-08T12:10:04.011Z,40.03
2018-05-08T12:11:56.860Z,38.96
2018-05-08T12:12:56.764Z,39.67
2018-05-08T12:14:49.680Z,38.50
2018-05-08T12:15:49.532Z,37.82
2018-05-08T12:17:42.891Z,37.05
2018-05-08T12:18:42.760Z,37.63
2018-05-08T12:20:35.611Z,38.99
2018-05-08T12:21:35.517Z,39.26
2018-05-08T12:23:28.340Z,38.56
2018-05-08T12:24:28.290Z,39.94
2018-05-08T12:26:21.131Z,40.03
2018-05-08T12:27:21.013Z,38.29
2018-05-08T12:29:13.867Z,38.68
2018-05-08T12:30:13.760Z,38.29
2018-05-08T12:32:06.609Z,38.40
2018-05-08T12:33:06.506Z,37.92
2018-05-08T12:34:59.363Z,37.15
2018-05-08T12:35:59.264Z,37.15
2018-05-08T12:37:52.108Z,36.64
2018-05-08T12:38:52.045Z,37.03
2018-05-08T12:40:44.858Z,37.15
2018-05-08T12:41:44.767Z,37.92
2018-05-08T12:43:37.645Z,38.52
2018-05-08T12:44:37.511Z,37.55
2018-05-08T12:46:30.362Z,36.27
2018-05-08T12:47:30.264Z,38.21
2018-05-08T12:49:23.105Z,35.49
2018-05-08T12:50:23.057Z,35.49
2018-05-08T12:52:15.863Z,35.92
2018-05-08T12:53:15.755Z,35.92
2018-05-08T12:55:08.706Z,35.92
2018-05-08T12:56:08.702Z,35.82
2018-05-08T12:58:01.455Z,35.51
2018-05-08T12:59:01.412Z,36.08
2018-05-08T13:00:54.205Z,37.43
2018-05-08T13:01:54.125Z,38.21
2018-05-08T13:03:46.936Z,36.38
2018-05-08T13:04:46.874Z,36.10
2018-05-08T13:06:39.709Z,34.27
2018-05-08T13:07:39.617Z,35.45
2018-05-08T13:09:32.503Z,35.24
2018-05-08T13:10:32.359Z,35.63
2018-05-08T13:12:25.194Z,36.30
2018-05-08T13:13:25.110Z,36.79
2018-05-08T13:15:17.958Z,37.96
2018-05-08T13:16:17.864Z,37.08
2018-05-08T13:18:10.819Z,35.94
2018-05-08T13:19:10.613Z,35.45
2018-05-08T13:21:03.460Z,36.81
2018-05-08T13:22:03.376Z,35.43
2018-05-08T13:23:56.192Z,36.30
2018-05-08T13:24:56.110Z,37.05
2018-05-08T13:26:48.959Z,38.37
2018-05-08T13:27:48.860Z,38.85
2018-05-08T13:29:41.718Z,38.79
2018-05-08T13:30:41.624Z,38.21
2018-05-08T13:32:34.445Z,36.89
2018-05-08T13:33:34.366Z,36.50
2018-05-08T13:35:27.203Z,36.22
2018-05-08T13:36:27.113Z,35.72
2018-05-08T13:38:19.958Z,36.89
2018-05-08T13:39:19.883Z,37.35
2018-05-08T13:41:12.683Z,37.94
2018-05-08T13:42:12.617Z,37.08
2018-05-08T13:44:05.463Z,36.30
2018-05-08T13:45:05.356Z,37.30
2018-05-08T13:46:58.185Z,36.22
2018-05-08T13:47:58.131Z,35.06
2018-05-08T13:49:50.950Z,34.79
2018-05-08T13:50:50.846Z,35.66
2018-05-08T13:52:43.800Z,34.79
2018-05-08T13:53:43.697Z,32.94
2018-05-08T13:55:36.546Z,34.01
2018-05-08T13:56:36.449Z,34.80
2018-05-08T13:58:29.318Z,34.40
2018-05-08T13:59:29.199Z,33.34
2018-05-08T14:01:22.047Z,34.80
2018-05-08T14:02:21.945Z,34.42
2018-05-08T14:04:14.900Z,34.80
2018-05-08T14:05:14.802Z,34.42
2018-05-08T14:07:07.669Z,34.63
2018-05-08T14:08:07.565Z,35.11
2018-05-08T14:10:00.441Z,34.53
2018-05-08T14:11:00.377Z,35.31
2018-05-08T14:12:53.236Z,34.98
2018-05-08T14:13:53.149Z,35.86
2018-05-08T14:15:46.032Z,35.63
2018-05-08T14:16:45.910Z,36.61
2018-05-08T14:18:38.755Z,35.17
2018-05-08T14:19:38.909Z,34.30
2018-05-08T14:21:31.598Z,34.79
2018-05-08T14:22:31.410Z,35.00
2018-05-08T14:24:24.340Z,34.79
2018-05-08T14:25:24.261Z,34.70
2018-05-08T14:27:17.114Z,34.50
2018-05-08T14:28:17.000Z,35.06
2018-05-08T14:30:09.848Z,36.21
2018-05-08T14:31:09.752Z,36.48
2018-05-08T14:33:02.593Z,37.59
2018-05-08T14:34:02.503Z,36.54
2018-05-08T14:35:55.405Z,34.59
2018-05-08T14:36:55.342Z,34.90
2018-05-08T14:38:48.200Z,35.21
2018-05-08T14:39:48.110Z,34.22
2018-05-08T14:41:40.939Z,35.21
2018-05-08T14:42:40.857Z,34.84
2018-05-08T14:44:33.720Z,33.49
2018-05-08T14:45:33.609Z,34.47
2018-05-08T14:47:26.489Z,32.82
2018-05-08T14:48:26.376Z,32.81
2018-05-08T14:50:20.320Z,34.08
2018-05-08T14:51:19.099Z,32.91
2018-05-08T14:53:11.970Z,32.15
2018-05-08T14:54:11.892Z,32.16
2018-05-08T14:56:04.703Z,31.57
2018-05-08T14:57:04.606Z,31.19
2018-05-08T14:58:57.509Z,31.60
2018-05-08T14:59:57.366Z,31.02
2018-05-08T15:01:50.199Z,31.60
2018-05-08T15:02:50.105Z,30.74
2018-05-08T15:04:42.937Z,29.66
2018-05-08T15:05:42.844Z,29.95
2018-05-08T15:07:35.711Z,29.66
2018-05-08T15:08:35.601Z,29.75
2018-05-08T15:10:28.501Z,30.74
2018-05-08T15:11:28.360Z,29.88
2018-05-08T15:13:21.179Z,27.37
2018-05-08T15:14:21.100Z,28.14
2018-05-08T15:16:13.954Z,28.14
2018-05-08T15:17:13.940Z,28.03
2018-05-08T15:19:07.727Z,27.93
2018-05-08T15:20:07.621Z,28.81
2018-05-08T15:22:00.570Z,27.73
2018-05-08T15:23:00.373Z,27.75
2018-05-08T15:24:53.842Z,29.42
2018-05-08T15:25:53.641Z,26.79
2018-05-08T15:27:46.469Z,27.87
2018-05-08T15:28:46.418Z,27.87
2018-05-08T15:30:39.387Z,27.48
2018-05-08T15:31:39.394Z,27.88
2018-05-08T15:33:32.079Z,26.61
2018-05-08T15:34:31.985Z,26.81
2018-05-08T15:36:25.059Z,26.99
2018-05-08T15:37:24.750Z,28.85
2018-05-08T15:39:17.627Z,26.14
2018-05-08T15:40:17.485Z,26.05
2018-05-08T15:42:10.362Z,26.68
2018-05-08T15:43:10.233Z,27.87
2018-05-08T15:45:03.077Z,27.59
2018-05-08T15:46:02.981Z,27.20
2018-05-08T15:47:55.859Z,26.53
2018-05-08T15:48:55.758Z,25.95
2018-05-08T15:50:48.603Z,24.20
2018-05-08T15:51:48.482Z,24.80
2018-05-08T15:53:41.390Z,26.17
2018-05-08T15:54:41.296Z,26.17
2018-05-08T15:56:34.081Z,25.38
2018-05-08T15:57:33.981Z,25.87
2018-05-08T15:59:26.847Z,24.88
2018-05-08T16:00:26.726Z,25.57
2018-05-08T16:02:19.562Z,24.59
2018-05-08T16:03:19.479Z,25.07
2018-05-08T16:05:12.671Z,25.56
2018-05-08T16:06:12.567Z,25.28
2018-05-08T16:08:05.098Z,24.97
2018-05-08T16:09:04.978Z,24.20
2018-05-08T16:10:57.859Z,25.10
2018-05-08T16:11:57.732Z,24.70
2018-05-08T16:13:50.569Z,24.98
2018-05-08T16:14:50.492Z,25.09
2018-05-08T16:16:43.454Z,25.09
2018-05-08T16:17:43.408Z,24.79
2018-05-08T16:19:36.180Z,24.77
2018-05-08T16:20:36.087Z,24.77
2018-05-08T16:22:28.963Z,24.30
2018-05-08T16:23:28.837Z,24.80
2018-05-08T16:25:22.519Z,24.98
2018-05-08T16:26:22.427Z,24.69
2018-05-08T16:28:16.925Z,25.48
2018-05-08T16:29:15.212Z,25.59
2018-05-08T16:31:09.237Z,24.88
2018-05-08T16:32:07.927Z,24.88
2018-05-08T16:34:01.637Z,25.28
2018-05-08T16:35:02.057Z,24.88
2018-05-08T16:36:54.871Z,24.21
2018-05-08T16:37:54.770Z,24.60
2018-05-08T16:39:48.727Z,25.67
2018-05-08T16:40:48.019Z,24.30
2018-05-08T16:42:41.274Z,24.41
2018-05-08T16:43:43.051Z,24.58
2018-05-08T16:45:34.503Z,24.69
2018-05-08T16:46:33.923Z,24.98
2018-05-08T16:48:29.282Z,24.59
2018-05-08T16:49:28.698Z,24.31
2018-05-08T16:51:21.667Z,24.09
2018-05-08T16:52:21.374Z,24.77
2018-05-08T16:54:14.292Z,25.17
2018-05-08T16:55:14.144Z,24.29
2018-05-08T16:57:07.030Z,24.77
2018-05-08T16:58:06.907Z,25.56
2018-05-08T16:59:59.697Z,24.97
2018-05-08T17:00:59.605Z,24.77
2018-05-08T17:02:52.516Z,25.17
2018-05-08T17:03:52.351Z,25.65
2018-05-08T17:05:45.195Z,25.65
2018-05-08T17:06:45.122Z,24.66
2018-05-08T17:08:37.962Z,24.87
2018-05-08T17:09:37.904Z,25.45
2018-05-08T17:11:30.689Z,24.86
2018-05-08T17:12:30.598Z,25.54
2018-05-08T17:14:23.671Z,26.01
2018-05-08T17:15:23.581Z,25.62
2018-05-08T17:17:16.403Z,26.01
2018-05-08T17:18:16.314Z,25.83
2018-05-08T17:20:09.158Z,25.83
2018-05-08T17:21:09.061Z,25.65
2018-05-08T17:23:01.889Z,24.86
2018-05-08T17:24:01.805Z,25.43
2018-05-08T17:25:54.660Z,26.50
2018-05-08T17:26:54.584Z,26.61
2018-05-08T17:28:47.399Z,26.42
2018-05-08T17:29:47.304Z,26.12
2018-05-08T17:31:40.227Z,26.79
2018-05-08T17:32:40.124Z,26.31
2018-05-08T17:34:32.888Z,26.68
2018-05-08T17:35:32.805Z,26.29
2018-05-08T17:37:25.779Z,26.10
2018-05-08T17:38:25.678Z,26.59
2018-05-08T17:40:18.533Z,26.88
2018-05-08T17:41:18.471Z,26.97
2018-05-08T17:43:11.281Z,27.06
2018-05-08T17:44:11.159Z,27.26
2018-05-08T17:46:04.539Z,27.06
2018-05-08T17:47:04.431Z,27.06
2018-05-08T17:48:57.771Z,26.87
2018-05-08T17:49:57.691Z,27.25
2018-05-08T17:51:50.512Z,27.52
2018-05-08T17:52:50.439Z,27.70
2018-05-08T17:54:43.289Z,28.39
2018-05-08T17:55:43.181Z,28.19
2018-05-08T17:57:36.123Z,28.65
2018-05-08T17:58:35.927Z,30.08
2018-05-08T18:00:28.820Z,32.28
2018-05-08T18:01:28.723Z,33.14
2018-05-08T18:03:21.518Z,35.05
2018-05-08T18:04:21.518Z,35.71
2018-05-08T18:06:14.277Z,36.06
2018-05-08T18:07:14.187Z,36.25
2018-05-08T18:09:07.010Z,37.49
2018-05-08T18:10:06.918Z,38.27
2018-05-08T18:11:59.831Z,38.25
2018-05-08T18:12:59.705Z,38.73
2018-05-08T18:14:52.604Z,39.29
2018-05-08T18:15:52.522Z,39.97
2018-05-08T18:17:45.406Z,40.53
2018-05-08T18:18:45.287Z,41.09
2018-05-08T18:20:38.095Z,41.09
2018-05-08T18:21:38.036Z,41.00
2018-05-08T18:23:30.947Z,41.58
2018-05-08T18:24:30.792Z,41.75
2018-05-08T18:26:23.618Z,42.72
2018-05-08T18:27:23.593Z,42.14
2018-05-08T18:29:16.386Z,41.85
2018-05-08T18:30:16.268Z,42.31
2018-05-08T18:32:09.095Z,43.18